Time;durP1;ratioP1;P1;durP2;ratioP2;P2;SDS_P1;SDS_P2;PMS_P1;PMS_P2;Temp;Humidity;BMP_temperature;BMP_pressure;BME280_temperature;BME280_humidity;BME280_pressure;Samples;Min_cycle;Max_cycle;Signal;HPM_P1;HPM_P2
2022/12/16 00:00:36;;;;;;;;;;;;;;;0.32;74.27;97050.28;7385235;19;19923;-72
2022/12/16 00:03:03;;;;;;;;;;;;;;;0.39;74.29;97051.41;7389277;19;20343;-72
2022/12/16 00:05:30;;;;;;;;;;;;;;;0.52;73.88;97057.25;7388032;19;19954;-72
2022/12/16 00:07:56;;;;;;;;;;;;;;;0.27;74.18;97058.44;7389599;19;19954;-71
2022/12/16 00:10:23;;;;;;;;;;;;;;;0.19;74.33;97058.25;7377693;19;19922;-74
2022/12/16 00:12:49;;;;;;;;;;;;;;;0.19;74.09;97066.88;7388310;19;19918;-75
2022/12/16 00:15:17;;;;;;;;;;;;;;;0.17;74.12;97070.53;7388710;19;20544;-75
2022/12/16 00:17:43;;;;;;;;;;;;;;;0.11;74.76;97068.44;7387013;19;20392;-75
2022/12/16 00:20:10;;;;;;;;;;;;;;;-0.10;74.74;97082.19;7383019;19;19923;-74
2022/12/16 00:22:37;;;;;;;;;;;;;;;-0.07;74.65;97081.94;7387726;19;19918;-75
2022/12/16 00:25:04;;;;;;;;;;;;;;;-0.14;74.79;97072.97;7389619;19;19943;-75
2022/12/16 00:27:30;;;;;;;;;;;;;;;-0.15;75.24;97062.72;7389207;19;19915;-74
2022/12/16 00:29:57;;;;;;;;;;;;;;;-0.05;74.84;97051.47;7382410;19;20337;-72
2022/12/16 00:32:23;;;;;;;;;;;;;;;-0.03;74.84;97054.75;7387526;19;19935;-72
2022/12/16 00:34:50;;;;;;;;;;;;;;;-0.03;74.60;97070.38;7387151;19;20611;-74
2022/12/16 00:37:17;;;;;;;;;;;;;;;-0.08;74.60;97064.69;7389244;19;19927;-72
2022/12/16 00:39:43;;;;;;;;;;;;;;;0.05;74.92;97056.72;7386025;19;19947;-75
2022/12/16 00:42:10;;;;;;;;;;;;;;;0.10;74.54;97064.16;7389436;19;19951;-74
2022/12/16 00:44:36;;;;;;;;;;;;;;;0.00;74.59;97061.50;7387600;19;20348;-75
2022/12/16 00:47:03;;;;;;;;;;;;;;;-0.01;74.72;97076.25;7397171;19;19947;-74
2022/12/16 00:49:29;;;;;;;;;;;;;;;0.03;74.56;97073.41;7394878;19;19939;-72
2022/12/16 00:51:56;;;;;;;;;;;;;;;-0.13;74.71;97078.97;7388888;19;19914;-74
2022/12/16 00:54:25;;;;;;;;;;;;;;;-0.03;74.72;97085.97;7395423;19;20316;-74
2022/12/16 00:56:52;;;;;;;;;;;;;;;-0.15;74.79;97083.50;7393245;19;19922;-73
2022/12/16 00:59:19;;;;;;;;;;;;;;;-0.08;74.65;97088.09;7393358;19;20355;-74
2022/12/16 01:01:45;;;;;;;;;;;;;;;-0.22;74.98;97090.94;7393367;19;19922;-74
2022/12/16 01:04:12;;;;;;;;;;;;;;;-0.11;74.92;97093.50;7396787;19;19926;-74
2022/12/16 01:06:38;;;;;;;;;;;;;;;-0.22;74.82;97096.13;7396088;19;19915;-74
2022/12/16 01:09:05;;;;;;;;;;;;;;;-0.22;74.87;97101.34;7392665;19;19961;-74
2022/12/16 01:11:31;;;;;;;;;;;;;;;-0.13;74.67;97098.03;7390757;19;19944;-74
2022/12/16 01:13:58;;;;;;;;;;;;;;;-0.12;74.90;97110.06;7392081;19;19938;-74
2022/12/16 01:16:24;;;;;;;;;;;;;;;-0.11;74.96;97108.28;7395124;19;19939;-73
2022/12/16 01:18:54;;;;;;;;;;;;;;;-0.23;75.43;97116.13;7395745;19;19945;-74
2022/12/16 01:21:20;;;;;;;;;;;;;;;-0.09;75.23;97116.81;7391454;19;20295;-74
2022/12/16 01:23:47;;;;;;;;;;;;;;;-0.07;75.18;97118.34;7392964;19;19926;-74
2022/12/16 01:26:15;;;;;;;;;;;;;;;-0.29;75.40;97115.75;7389959;19;19923;-74
2022/12/16 01:28:41;;;;;;;;;;;;;;;-0.12;74.93;97114.44;7394134;19;20265;-74
2022/12/16 01:31:08;;;;;;;;;;;;;;;-0.24;75.33;97116.22;7390978;19;19927;-74
2022/12/16 01:33:37;;;;;;;;;;;;;;;-0.27;75.18;97116.47;7390763;19;19957;-74
2022/12/16 01:36:04;;;;;;;;;;;;;;;-0.29;75.78;97116.59;7392838;19;19925;-74
2022/12/16 01:38:31;;;;;;;;;;;;;;;-0.29;75.60;97119.19;7394694;19;19919;-74
2022/12/16 01:40:58;;;;;;;;;;;;;;;-0.25;75.64;97117.19;7387557;19;20336;-74
2022/12/16 01:43:26;;;;;;;;;;;;;;;-0.15;75.19;97112.91;7389716;19;19943;-74
2022/12/16 01:45:53;;;;;;;;;;;;;;;-0.29;75.23;97120.94;7395187;19;19922;-74
2022/12/16 01:48:26;;;;;;;;;;;;;;;-0.25;75.17;97123.19;7394017;19;20474;-73
2022/12/16 01:50:53;;;;;;;;;;;;;;;-0.33;75.64;97119.53;7390630;19;19944;-74
2022/12/16 01:53:20;;;;;;;;;;;;;;;-0.22;75.10;97129.94;7389957;19;19922;-73
2022/12/16 01:55:47;;;;;;;;;;;;;;;-0.18;75.03;97127.94;7391455;19;19954;-73
2022/12/16 01:58:21;;;;;;;;;;;;;;;-0.14;74.87;97137.97;7389753;19;19939;-73
2022/12/16 02:00:47;;;;;;;;;;;;;;;-0.26;75.18;97142.34;7390884;19;19923;-73
2022/12/16 02:03:14;;;;;;;;;;;;;;;-0.19;75.34;97149.66;7390475;19;19926;-74
2022/12/16 02:05:41;;;;;;;;;;;;;;;-0.20;75.35;97142.81;7390503;19;19949;-74
2022/12/16 02:08:07;;;;;;;;;;;;;;;-0.23;75.52;97144.69;7389671;19;19978;-74
2022/12/16 02:10:37;;;;;;;;;;;;;;;-0.19;75.37;97150.47;7390917;19;19986;-74
2022/12/16 02:13:11;;;;;;;;;;;;;;;-0.28;75.22;97148.59;7391536;19;19926;-74
2022/12/16 02:15:40;;;;;;;;;;;;;;;-0.24;75.25;97155.19;7380622;19;19922;-74
2022/12/16 02:18:14;;;;;;;;;;;;;;;-0.34;75.64;97154.25;7388640;19;19919;-74
2022/12/16 02:21:05;;;;;;;;;;;;;;;-0.22;75.53;97159.34;7388540;19;19915;-74
2022/12/16 02:23:31;;;;;;;;;;;;;;;-0.08;75.07;97155.69;7385987;19;19994;-74
2022/12/16 02:26:10;;;;;;;;;;;;;;;-0.20;75.38;97158.41;7392159;19;19925;-74
2022/12/16 02:28:55;;;;;;;;;;;;;;;-0.04;74.93;97159.69;7392451;19;19922;-74
2022/12/16 02:31:28;;;;;;;;;;;;;;;-0.14;75.18;97153.56;7388385;19;20348;-74
2022/12/16 02:34:05;;;;;;;;;;;;;;;-0.07;75.45;97148.72;7390880;19;19918;-74
2022/12/16 02:37:11;;;;;;;;;;;;;;;-0.06;75.45;97147.75;7388182;19;19919;-74
2022/12/16 02:39:38;;;;;;;;;;;;;;;-0.14;75.40;97152.72;7386905;19;19978;-74
2022/12/16 02:42:06;;;;;;;;;;;;;;;0.03;75.17;97151.41;7387635;19;19941;-74
2022/12/16 02:44:42;;;;;;;;;;;;;;;0.04;74.93;97150.47;7386564;19;19927;-74
2022/12/16 02:47:09;;;;;;;;;;;;;;;-0.10;75.05;97149.78;7391365;19;19944;-74
2022/12/16 02:49:35;;;;;;;;;;;;;;;0.04;74.92;97151.28;7386014;19;19947;-74
2022/12/16 02:52:01;;;;;;;;;;;;;;;0.01;74.85;97155.91;7390475;19;19923;-74
2022/12/16 02:54:28;;;;;;;;;;;;;;;-0.17;75.19;97159.00;7391013;19;19925;-74
2022/12/16 02:57:05;;;;;;;;;;;;;;;-0.17;75.44;97166.78;7392155;19;19939;-74
2022/12/16 02:59:39;;;;;;;;;;;;;;;-0.16;75.22;97171.03;7388945;19;19918;-74
2022/12/16 03:02:05;;;;;;;;;;;;;;;-0.06;75.04;97165.97;7390903;19;19939;-74
2022/12/16 03:04:44;;;;;;;;;;;;;;;0.04;74.87;97163.47;7388494;19;20375;-74
2022/12/16 03:07:12;;;;;;;;;;;;;;;-0.20;75.07;97174.00;7389123;19;19927;-74
2022/12/16 03:09:38;;;;;;;;;;;;;;;-0.12;75.33;97179.44;7385612;19;19923;-74
2022/12/16 03:12:07;;;;;;;;;;;;;;;-0.29;75.15;97171.19;7389358;19;19956;-74
2022/12/16 03:14:33;;;;;;;;;;;;;;;-0.07;74.54;97172.94;7387229;19;19919;-74
2022/12/16 03:17:00;;;;;;;;;;;;;;;-0.08;74.85;97180.84;7389237;19;19927;-74
2022/12/16 03:19:26;;;;;;;;;;;;;;;-0.03;75.00;97182.16;7388961;19;19919;-74
2022/12/16 03:22:05;;;;;;;;;;;;;;;-0.11;75.24;97171.50;7386418;19;20344;-75
2022/12/16 03:24:31;;;;;;;;;;;;;;;-0.23;75.32;97178.50;7387467;19;20289;-74
2022/12/16 03:27:17;;;;;;;;;;;;;;;-0.07;75.28;97191.13;7388888;19;19927;-74
2022/12/16 03:29:45;;;;;;;;;;;;;;;-0.10;75.25;97180.97;7389901;19;20320;-74
2022/12/16 03:32:14;;;;;;;;;;;;;;;-0.12;75.11;97182.03;7388763;19;19919;-74
2022/12/16 03:34:42;;;;;;;;;;;;;;;-0.06;75.01;97182.38;7386930;19;19923;-75
2022/12/16 03:37:09;;;;;;;;;;;;;;;-0.13;74.90;97181.22;7384694;19;19919;-74
2022/12/16 03:39:40;;;;;;;;;;;;;;;-0.05;74.81;97191.84;7386178;19;19936;-74
2022/12/16 03:42:07;;;;;;;;;;;;;;;-0.15;75.15;97203.91;7386477;19;19922;-74
2022/12/16 03:44:34;;;;;;;;;;;;;;;-0.26;75.11;97201.31;7384279;19;19915;-74
2022/12/16 03:47:01;;;;;;;;;;;;;;;-0.23;75.21;97201.06;7385805;19;20308;-74
2022/12/16 03:49:27;;;;;;;;;;;;;;;-0.18;75.06;97209.34;7386165;19;19927;-74
2022/12/16 03:51:54;;;;;;;;;;;;;;;-0.17;75.02;97210.16;7389188;19;19947;-74
2022/12/16 03:54:20;;;;;;;;;;;;;;;-0.22;75.27;97207.91;7387458;19;19918;-74
2022/12/16 03:56:47;;;;;;;;;;;;;;;-0.34;75.63;97211.44;7384960;19;19919;-74
2022/12/16 03:59:13;;;;;;;;;;;;;;;-0.30;75.48;97216.28;7384869;19;19922;-74
2022/12/16 04:01:40;;;;;;;;;;;;;;;-0.68;76.23;97221.78;7389503;19;19922;-74
2022/12/16 04:04:06;;;;;;;;;;;;;;;-0.61;76.11;97222.13;7388924;19;19919;-74
2022/12/16 04:06:33;;;;;;;;;;;;;;;-0.45;75.58;97215.69;7388965;19;19915;-74
2022/12/16 04:08:59;;;;;;;;;;;;;;;-0.46;75.53;97229.59;7387224;19;19915;-74
2022/12/16 04:25:16;;;;;;;;;;;;;;;-0.46;75.48;97242.59;7383909;19;19940;-75
2022/12/16 04:27:45;;;;;;;;;;;;;;;-0.29;74.83;97241.34;7386066;19;19926;-74
2022/12/16 04:30:19;;;;;;;;;;;;;;;-0.39;75.52;97242.97;7385565;19;19962;-74
